Time;durP1;ratioP1;P1;durP2;ratioP2;P2;SDS_P1;SDS_P2;PMS_P1;PMS_P2;Temp;Humidity;BMP_temperature;BMP_pressure;BME280_temperature;BME280_humidity;BME280_pressure;Samples;Min_cycle;Max_cycle;Signal;HPM_P1;HPM_P2
2022/03/16 00:00:08;;;;;;;15.00;9.70;;;;;;;8.10;83.33;102020.97;5062899;28;20285;-54
2022/03/16 00:02:35;;;;;;;16.00;9.70;;;;;;;8.02;83.93;102017.25;5061441;28;20231;-53
2022/03/16 00:05:01;;;;;;;10.00;8.80;;;;;;;7.97;84.25;102017.09;5062193;28;20251;-52
2022/03/16 00:07:29;;;;;;;10.60;8.63;;;;;;;7.92;85.11;102018.69;5057810;28;20243;-52
2022/03/16 00:09:55;;;;;;;13.70;9.30;;;;;;;7.97;85.40;102014.50;5053029;28;21153;-53
2022/03/16 00:12:22;;;;;;;13.07;8.73;;;;;;;8.03;85.22;102025.13;5058785;28;20243;-53
2022/03/16 00:14:48;;;;;;;13.47;9.47;;;;;;;8.03;85.26;102017.28;5062329;28;20265;-53
2022/03/16 00:17:16;;;;;;;15.13;9.00;;;;;;;8.03;85.42;102017.28;5064033;28;20215;-52
2022/03/16 00:19:44;;;;;;;12.50;7.93;;;;;;;7.96;85.59;102015.31;5062189;28;20219;-52
2022/03/16 00:22:10;;;;;;;10.43;8.57;;;;;;;7.94;86.34;102019.63;5062224;28;20634;-52
2022/03/16 00:24:38;;;;;;;13.47;9.47;;;;;;;7.94;86.86;102030.09;5063296;28;20296;-54
2022/03/16 00:27:04;;;;;;;17.07;9.53;;;;;;;7.91;87.14;102026.50;5063974;28;20312;-52
2022/03/16 00:29:31;;;;;;;17.47;9.70;;;;;;;7.90;87.46;102038.69;5063594;28;20269;-52
2022/03/16 00:31:58;;;;;;;17.40;9.57;;;;;;;7.86;87.77;102032.47;5067465;28;20247;-53
2022/03/16 00:34:25;;;;;;;10.83;9.73;;;;;;;7.81;88.24;102033.16;5062261;28;20277;-52
2022/03/16 00:36:51;;;;;;;11.10;8.43;;;;;;;7.76;88.82;102032.16;5063515;28;20319;-52
2022/03/16 00:39:18;;;;;;;12.50;9.17;;;;;;;7.75;89.20;102038.19;5067644;28;20277;-52
2022/03/16 00:41:45;;;;;;;12.20;9.30;;;;;;;7.71;89.75;102031.09;5065294;28;20613;-53
2022/03/16 00:44:12;;;;;;;15.80;8.80;;;;;;;7.65;90.04;102037.00;5064839;28;20251;-52
2022/03/16 00:46:38;;;;;;;17.93;9.83;;;;;;;7.62;90.15;102031.69;5064503;28;20277;-53
2022/03/16 00:49:05;;;;;;;13.77;9.37;;;;;;;7.58;90.98;102032.41;5060010;28;20255;-52
2022/03/16 00:51:31;;;;;;;14.60;10.00;;;;;;;7.51;91.59;102023.53;5065085;28;20246;-52
2022/03/16 00:53:58;;;;;;;12.50;9.97;;;;;;;7.45;92.05;102020.69;5062269;28;20308;-53
2022/03/16 00:56:24;;;;;;;17.60;10.10;;;;;;;7.43;92.89;102024.97;5064165;28;20280;-53
2022/03/16 00:58:52;;;;;;;14.67;10.23;;;;;;;7.41;93.59;102024.94;5067987;28;20243;-52
2022/03/16 01:01:18;;;;;;;15.57;10.90;;;;;;;7.41;94.04;102034.50;5069847;28;20247;-53
2022/03/16 01:03:44;;;;;;;16.50;11.13;;;;;;;7.38;94.33;102034.41;5061993;28;20277;-51
2022/03/16 01:06:15;;;;;;;13.77;9.90;;;;;;;7.34;94.72;102030.81;5063857;28;20277;-52
2022/03/16 01:08:41;;;;;;;17.63;11.90;;;;;;;7.35;95.73;102027.34;5065607;28;20227;-53
2022/03/16 01:11:07;;;;;;;15.10;10.93;;;;;;;7.32;95.59;102026.34;5060629;28;20251;-53
2022/03/16 01:13:34;;;;;;;14.60;10.70;;;;;;;7.24;96.08;102018.28;5067860;28;20247;-53
2022/03/16 01:16:01;;;;;;;16.53;11.40;;;;;;;7.22;96.87;102024.28;5064621;28;20288;-53
2022/03/16 01:18:28;;;;;;;13.67;11.00;;;;;;;7.20;96.80;102025.97;5064181;28;20269;-53
2022/03/16 01:20:54;;;;;;;15.77;10.77;;;;;;;7.17;96.76;102026.75;5066328;28;20272;-51
2022/03/16 01:23:20;;;;;;;17.30;11.17;;;;;;;7.13;97.40;102030.97;5064287;28;20320;-53
2022/03/16 01:25:47;;;;;;;15.30;10.80;;;;;;;7.11;97.77;102021.31;5069441;28;20222;-53
2022/03/16 01:28:13;;;;;;;15.67;10.80;;;;;;;7.04;98.06;102029.75;5063532;28;20353;-53
2022/03/16 01:30:39;;;;;;;17.03;12.33;;;;;;;6.99;98.53;102032.22;5062333;28;20251;-52
2022/03/16 01:33:08;;;;;;;16.73;11.93;;;;;;;6.88;99.02;102029.25;5063121;28;20231;-52
2022/03/16 01:35:34;;;;;;;20.23;12.43;;;;;;;6.86;99.52;102035.25;5064845;28;20227;-52
2022/03/16 01:38:00;;;;;;;17.00;12.50;;;;;;;6.82;100.00;102030.75;5063328;28;20308;-52
2022/03/16 01:40:27;;;;;;;13.40;11.53;;;;;;;6.73;100.00;102030.41;5064140;28;20235;-52
2022/03/16 01:42:53;;;;;;;21.30;12.80;;;;;;;6.68;100.00;102032.88;5069655;28;20290;-51
2022/03/16 01:45:19;;;;;;;14.70;11.07;;;;;;;6.66;100.00;102032.78;5062407;28;20263;-52
2022/03/16 01:47:46;;;;;;;15.97;10.93;;;;;;;6.65;100.00;102036.25;5064951;28;20797;-53
2022/03/16 01:50:13;;;;;;;16.73;10.93;;;;;;;6.60;100.00;102035.22;5067097;28;20666;-53
2022/03/16 01:52:41;;;;;;;15.90;11.67;;;;;;;6.59;100.00;102046.47;5065055;28;20251;-52
2022/03/16 01:55:08;;;;;;;17.13;12.07;;;;;;;6.57;100.00;102044.66;5062884;28;20219;-52
2022/03/16 01:57:35;;;;;;;15.13;11.30;;;;;;;6.58;100.00;102044.69;5063569;28;20223;-52
2022/03/16 02:00:02;;;;;;;15.27;11.27;;;;;;;6.54;100.00;102055.84;5067202;28;20223;-53
2022/03/16 02:02:28;;;;;;;15.33;11.37;;;;;;;6.54;100.00;102058.47;5065908;28;20583;-51
2022/03/16 02:04:55;;;;;;;14.97;12.03;;;;;;;6.52;100.00;102061.84;5065445;28;20254;-52
2022/03/16 02:07:22;;;;;;;14.73;10.63;;;;;;;6.51;100.00;102057.47;5063728;28;20292;-51
2022/03/16 02:09:49;;;;;;;14.97;11.23;;;;;;;6.49;100.00;102060.00;5060936;28;20284;-53
2022/03/16 02:12:16;;;;;;;14.90;11.10;;;;;;;6.47;100.00;102061.69;5064767;28;20240;-52
2022/03/16 02:14:42;;;;;;;14.13;11.17;;;;;;;6.46;100.00;102059.91;5064164;28;20231;-53
2022/03/16 02:17:09;;;;;;;14.23;11.20;;;;;;;6.43;100.00;102073.72;5065271;28;20645;-52
2022/03/16 02:19:35;;;;;;;16.87;10.57;;;;;;;6.40;100.00;102077.94;5054742;28;20224;-53
2022/03/16 02:22:03;;;;;;;16.87;11.13;;;;;;;6.37;100.00;102081.31;5063427;28;20835;-52
2022/03/16 02:24:31;;;;;;;14.67;9.50;;;;;;;6.31;100.00;102088.00;5066546;28;20231;-52
2022/03/16 02:26:57;;;;;;;13.60;11.23;;;;;;;6.30;100.00;102091.47;5063913;28;20720;-52
2022/03/16 02:29:24;;;;;;;15.70;10.10;;;;;;;6.19;100.00;102094.53;5063809;28;20254;-53
2022/03/16 02:31:50;;;;;;;18.90;11.80;;;;;;;6.16;100.00;102102.25;5058927;28;20239;-51
2022/03/16 02:34:17;;;;;;;18.00;10.73;;;;;;;6.12;100.00;102108.16;5059268;28;20314;-53
2022/03/16 02:36:43;;;;;;;15.27;10.93;;;;;;;6.08;100.00;102101.06;5065790;28;20251;-52
2022/03/16 02:39:09;;;;;;;14.83;11.27;;;;;;;6.06;100.00;102109.63;5061542;28;20247;-52
2022/03/16 02:41:37;;;;;;;15.57;11.03;;;;;;;6.06;100.00;102113.13;5060590;28;20255;-51
2022/03/16 02:44:04;;;;;;;13.17;10.33;;;;;;;6.03;100.00;102128.66;5060623;28;20304;-52
2022/03/16 02:46:30;;;;;;;13.63;9.77;;;;;;;6.00;100.00;102128.53;5064100;28;20794;-53
2022/03/16 02:48:56;;;;;;;15.37;10.27;;;;;;;5.99;100.00;102134.56;5068241;28;20265;-53
2022/03/16 02:51:23;;;;;;;15.33;10.10;;;;;;;5.96;100.00;102139.66;5062889;28;20259;-52
2022/03/16 02:53:49;;;;;;;16.87;10.77;;;;;;;5.93;100.00;102139.53;5063118;28;20242;-52
2022/03/16 02:56:16;;;;;;;14.00;10.57;;;;;;;5.95;100.00;102137.88;5060068;28;20262;-53
2022/03/16 02:58:43;;;;;;;19.23;10.70;;;;;;;5.93;100.00;102144.75;5063916;28;20281;-52
2022/03/16 03:01:10;;;;;;;15.77;10.83;;;;;;;5.88;100.00;102149.75;5068117;28;20355;-51
2022/03/16 03:03:36;;;;;;;15.10;11.53;;;;;;;5.85;100.00;102157.44;5066738;28;20727;-52
2022/03/16 03:06:02;;;;;;;17.80;10.37;;;;;;;5.82;100.00;102161.63;5061416;28;20293;-53
2022/03/16 03:08:29;;;;;;;14.70;9.93;;;;;;;5.81;100.00;102162.47;5060226;28;20251;-52
2022/03/16 03:10:55;;;;;;;20.83;11.30;;;;;;;5.77;100.00;102168.38;5063563;28;20304;-53
2022/03/16 03:13:21;;;;;;;16.00;11.93;;;;;;;5.81;100.00;102180.72;5060577;28;20239;-53
2022/03/16 03:15:49;;;;;;;18.53;10.83;;;;;;;5.85;100.00;102185.22;5052365;28;20648;-53
2022/03/16 03:18:15;;;;;;;22.13;11.40;;;;;;;5.80;100.00;102197.19;5062893;28;20281;-53
2022/03/16 03:20:41;;;;;;;15.17;11.10;;;;;;;5.70;100.00;102196.78;5055886;28;20231;-53
2022/03/16 03:23:08;;;;;;;13.93;10.37;;;;;;;5.60;100.00;102194.63;5057531;28;20897;-52
2022/03/16 03:25:34;;;;;;;17.03;11.37;;;;;;;5.50;100.00;102201.13;5064510;28;20244;-53
2022/03/16 03:28:00;;;;;;;13.50;11.20;;;;;;;5.50;100.00;102200.25;5059245;28;20400;-51
2022/03/16 03:30:27;;;;;;;13.63;10.00;;;;;;;5.51;100.00;102207.25;5062118;28;20953;-52
2022/03/16 03:32:56;;;;;;;12.87;10.07;;;;;;;5.58;100.00;102204.09;5063153;28;20250;-52
2022/03/16 03:35:22;;;;;;;19.93;12.47;;;;;;;5.66;100.00;102215.72;5059585;28;20289;-52
2022/03/16 03:37:48;;;;;;;15.33;11.27;;;;;;;5.56;100.00;102231.78;5064642;28;20258;-51
2022/03/16 03:40:15;;;;;;;15.10;9.43;;;;;;;5.44;100.00;102233.84;5067725;28;20231;-52
2022/03/16 03:42:42;;;;;;;13.30;10.00;;;;;;;5.35;100.00;102236.06;5066307;28;20269;-52
2022/03/16 03:45:08;;;;;;;19.10;11.97;;;;;;;5.28;100.00;102229.69;5066696;28;20614;-53
2022/03/16 03:47:35;;;;;;;16.37;10.73;;;;;;;5.28;100.00;102234.00;5066678;28;20239;-52
2022/03/16 03:50:03;;;;;;;15.73;10.53;;;;;;;5.23;100.00;102232.09;5063277;28;20259;-52
2022/03/16 03:52:29;;;;;;;14.87;10.53;;;;;;;5.25;100.00;102230.44;5065334;28;20314;-53
2022/03/16 03:54:55;;;;;;;15.33;10.43;;;;;;;5.30;100.00;102237.53;5061464;28;20324;-51
2022/03/16 03:57:22;;;;;;;16.53;10.27;;;;;;;5.37;100.00;102248.31;5065089;28;20266;-52
2022/03/16 03:59:48;;;;;;;14.53;10.13;;;;;;;5.25;100.00;102248.66;5064926;28;20391;-53
2022/03/16 04:02:15;;;;;;;17.47;11.03;;;;;;;5.23;100.00;102246.81;5067117;28;20242;-53
2022/03/16 04:04:42;;;;;;;15.53;10.43;;;;;;;5.18;100.00;102246.59;5067506;28;20254;-52
2022/03/16 04:07:09;;;;;;;14.80;9.67;;;;;;;5.12;100.00;102248.91;5066500;28;20231;-51
2022/03/16 04:09:36;;;;;;;13.73;10.67;;;;;;;5.03;100.00;102249.41;5065995;28;20258;-53
2022/03/16 04:12:02;;;;;;;17.03;10.07;;;;;;;4.99;100.00;102257.00;5068645;28;20227;-52
2022/03/16 04:14:29;;;;;;;15.53;10.60;;;;;;;4.96;100.00;102251.66;5067120;28;20820;-52
2022/03/16 04:16:55;;;;;;;14.17;9.90;;;;;;;4.94;100.00;102258.47;5066909;28;20341;-53
2022/03/16 04:19:21;;;;;;;13.80;10.43;;;;;;;4.94;100.00;102258.47;5066517;28;20254;-52
2022/03/16 04:21:47;;;;;;;16.67;10.83;;;;;;;4.92;100.00;102257.53;5066017;28;20266;-53
2022/03/16 04:24:15;;;;;;;20.63;11.30;;;;;;;4.99;100.00;102262.22;5065778;28;20259;-52
2022/03/16 04:26:41;;;;;;;18.80;11.53;;;;;;;4.86;100.00;102270.25;5066668;28;20314;-52
2022/03/16 04:29:08;;;;;;;18.20;11.37;;;;;;;4.83;100.00;102271.00;5065157;28;20771;-52
2022/03/16 04:31:34;;;;;;;15.87;11.00;;;;;;;4.83;100.00;102280.50;5062951;28;20275;-51
2022/03/16 04:34:00;;;;;;;16.57;11.57;;;;;;;4.78;100.00;102285.50;5064658;28;20227;-53
2022/03/16 04:36:29;;;;;;;14.13;10.27;;;;;;;4.81;100.00;102287.34;5064112;28;20247;-51
2022/03/16 04:38:57;;;;;;;16.10;11.00;;;;;;;4.91;100.00;102284.38;5065092;28;20223;-53
2022/03/16 04:41:25;;;;;;;18.77;11.53;;;;;;;4.81;100.00;102285.66;5062229;28;20242;-52
2022/03/16 04:43:51;;;;;;;16.43;10.77;;;;;;;4.68;100.00;102281.56;5064699;28;20259;-52
2022/03/16 04:46:17;;;;;;;15.43;10.93;;;;;;;4.64;100.00;102291.78;5067757;28;20922;-51
2022/03/16 04:48:44;;;;;;;16.63;11.27;;;;;;;4.60;100.00;102301.13;5066064;28;20255;-52
2022/03/16 04:51:10;;;;;;;16.10;11.83;;;;;;;4.57;100.00;102308.78;5059861;28;20247;-52
2022/03/16 04:53:37;;;;;;;17.70;12.53;;;;;;;4.54;100.00;102304.31;5063866;28;20308;-51
2022/03/16 04:56:03;;;;;;;15.63;10.07;;;;;;;4.51;100.00;102305.88;5057654;28;20262;-52
2022/03/16 04:58:32;;;;;;;18.27;10.90;;;;;;;4.51;100.00;102308.47;5071735;28;20327;-53
2022/03/16 05:00:58;;;;;;;17.63;12.00;;;;;;;4.52;100.00;102315.44;5061905;28;20281;-52
2022/03/16 05:03:24;;;;;;;17.67;11.73;;;;;;;4.48;100.00;102313.53;5066027;28;20257;-52
2022/03/16 05:05:50;;;;;;;20.20;13.10;;;;;;;4.46;100.00;102313.47;5059187;28;20332;-51
2022/03/16 05:08:17;;;;;;;15.40;11.60;;;;;;;4.45;100.00;102310.78;5058530;28;20715;-52
2022/03/16 05:10:43;;;;;;;16.17;11.97;;;;;;;4.45;100.00;102313.38;5061642;28;20227;-51
2022/03/16 05:13:09;;;;;;;20.00;12.30;;;;;;;4.44;100.00;102314.19;5071212;28;20800;-52
2022/03/16 05:15:37;;;;;;;16.80;12.07;;;;;;;4.43;100.00;102315.91;5065436;28;20231;-52
2022/03/16 05:18:04;;;;;;;16.93;12.87;;;;;;;4.49;100.00;102321.41;5064137;28;20280;-52
2022/03/16 05:20:31;;;;;;;17.70;12.77;;;;;;;4.54;100.00;102324.25;5061970;28;20259;-52
2022/03/16 05:22:57;;;;;;;18.93;12.20;;;;;;;4.48;100.00;102326.53;5058881;28;20235;-51
2022/03/16 05:25:24;;;;;;;19.23;11.90;;;;;;;4.44;100.00;102329.81;5066639;28;20863;-51
2022/03/16 05:27:51;;;;;;;23.37;14.40;;;;;;;4.57;100.00;102333.91;5063392;28;20223;-52
2022/03/16 05:30:19;;;;;;;21.10;14.07;;;;;;;4.56;100.00;102333.00;5064410;28;20412;-51
2022/03/16 05:32:47;;;;;;;19.87;13.60;;;;;;;4.48;100.00;102331.72;5061952;28;20223;-51
2022/03/16 05:35:14;;;;;;;20.10;14.07;;;;;;;4.40;100.00;102330.47;5058781;28;20261;-51
2022/03/16 05:37:41;;;;;;;22.97;13.07;;;;;;;4.37;100.00;102340.72;5064549;28;20264;-52
2022/03/16 05:40:09;;;;;;;19.13;12.60;;;;;;;4.35;100.00;102337.13;5058787;28;20256;-51
2022/03/16 05:42:35;;;;;;;21.33;13.47;;;;;;;4.35;100.00;102331.94;5061612;28;20258;-51
2022/03/16 05:45:02;;;;;;;17.67;13.97;;;;;;;4.34;100.00;102335.34;5055476;28;20262;-52
2022/03/16 05:47:28;;;;;;;19.30;12.30;;;;;;;4.28;100.00;102339.44;5061712;28;20222;-52
2022/03/16 05:49:56;;;;;;;21.50;13.33;;;;;;;4.27;100.00;102340.25;5060127;28;20964;-51
2022/03/16 05:52:24;;;;;;;17.47;12.97;;;;;;;4.28;100.00;102329.03;5063424;28;20243;-51
2022/03/16 05:54:51;;;;;;;16.50;11.87;;;;;;;4.28;100.00;102331.66;5064403;28;20250;-52
2022/03/16 05:57:17;;;;;;;19.47;12.57;;;;;;;4.27;100.00;102336.75;5068125;28;20703;-51
2022/03/16 05:59:44;;;;;;;15.70;12.93;;;;;;;4.31;100.00;102342.16;5063815;28;20250;-52
2022/03/16 06:02:11;;;;;;;18.97;13.97;;;;;;;4.34;100.00;102345.75;5065455;28;20231;-52
2022/03/16 06:04:38;;;;;;;18.93;13.37;;;;;;;4.35;100.00;102345.81;5066881;28;20238;-51
2022/03/16 06:07:06;;;;;;;19.40;13.13;;;;;;;4.31;100.00;102346.47;5060728;28;20308;-52
2022/03/16 06:09:33;;;;;;;20.13;13.53;;;;;;;4.25;100.00;102341.88;5068156;28;20218;-51
2022/03/16 06:11:59;;;;;;;21.43;13.60;;;;;;;4.30;100.00;102352.50;5061504;28;20258;-52
2022/03/16 06:14:26;;;;;;;20.90;14.90;;;;;;;4.35;100.00;102347.53;5063250;28;20231;-52
2022/03/16 06:16:52;;;;;;;18.73;13.33;;;;;;;4.30;100.00;102352.50;5063354;28;20829;-51
2022/03/16 06:19:19;;;;;;;23.40;15.23;;;;;;;4.34;100.00;102350.94;5063322;28;20238;-52
2022/03/16 06:21:45;;;;;;;25.17;15.80;;;;;;;4.40;100.00;102356.47;5063397;28;20251;-53
2022/03/16 06:24:13;;;;;;;22.40;17.23;;;;;;;4.47;100.00;102353.34;5063135;28;21175;-52
2022/03/16 06:26:40;;;;;;;26.50;16.10;;;;;;;4.57;100.00;102355.59;5065272;28;20230;-52
2022/03/16 06:29:06;;;;;;;25.17;16.20;;;;;;;4.66;100.00;109570.72;5062730;28;20724;-52
2022/03/16 06:31:33;;;;;;;25.70;14.97;;;;;;;4.71;100.00;102359.78;5065494;28;20235;-53
2022/03/16 06:33:59;;;;;;;21.10;14.70;;;;;;;4.77;100.00;102357.47;5063859;28;20226;-55
2022/03/16 06:36:26;;;;;;;19.47;14.90;;;;;;;4.82;100.00;102362.00;5061671;28;20257;-51
2022/03/16 06:38:52;;;;;;;22.60;15.97;;;;;;;4.83;100.00;102354.25;5067141;28;20231;-52
2022/03/16 06:41:20;;;;;;;24.27;16.10;;;;;;;4.83;100.00;102353.38;5069697;28;20243;-52
2022/03/16 06:43:46;;;;;;;23.33;16.07;;;;;;;4.85;100.00;102356.97;5063000;28;20234;-52
2022/03/16 06:46:13;;;;;;;25.10;16.10;;;;;;;4.94;100.00;102360.88;5063627;28;20866;-52
2022/03/16 06:48:39;;;;;;;25.87;17.37;;;;;;;5.12;100.00;102362.56;5067810;28;20259;-51
2022/03/16 06:51:06;;;;;;;23.60;16.27;;;;;;;5.30;100.00;102360.84;5058760;28;20306;-53
2022/03/16 06:53:33;;;;;;;25.43;17.20;;;;;;;5.43;100.00;102380.53;5060023;28;20257;-52
2022/03/16 06:55:59;;;;;;;24.07;15.60;;;;;;;5.47;100.00;102377.25;5063107;28;20281;-52
2022/03/16 06:58:27;;;;;;;24.17;17.10;;;;;;;5.55;100.00;102381.09;5063253;28;20708;-52
2022/03/16 07:00:53;;;;;;;26.33;16.60;;;;;;;5.57;100.00;102383.78;5063586;28;20267;-52
2022/03/16 07:03:19;;;;;;;27.93;16.23;;;;;;;5.54;100.00;102384.50;5065907;28;20239;-51
2022/03/16 07:05:46;;;;;;;24.90;16.53;;;;;;;5.57;100.00;102382.06;5064981;28;20231;-52
2022/03/16 07:08:14;;;;;;;24.47;14.57;;;;;;;5.60;100.00;102376.09;5070459;28;20242;-52
2022/03/16 07:10:41;;;;;;;24.03;17.93;;;;;;;5.67;100.00;102380.75;5062105;28;20720;-51
2022/03/16 07:13:09;;;;;;;26.33;15.83;;;;;;;5.84;100.00;102379.81;5064836;28;20288;-52
2022/03/16 07:15:38;;;;;;;26.90;16.10;;;;;;;5.89;100.00;102382.63;5066607;28;20234;-53
2022/03/16 07:18:05;;;;;;;19.77;14.20;;;;;;;5.93;100.00;102389.78;5066588;28;21018;-53
2022/03/16 07:20:32;;;;;;;21.80;15.87;;;;;;;6.02;100.00;102378.88;5067744;28;20731;-53
2022/03/16 07:23:03;;;;;;;24.47;16.47;;;;;;;6.10;100.00;102383.59;5062638;28;20315;-53
2022/03/16 07:25:30;;;;;;;23.13;15.10;;;;;;;6.11;100.00;102374.97;5066614;28;20232;-52
2022/03/16 07:27:56;;;;;;;24.97;17.67;;;;;;;6.19;100.00;102384.00;5067397;28;20259;-53
2022/03/16 07:30:23;;;;;;;22.83;17.13;;;;;;;6.20;100.00;102385.78;5065452;28;20285;-52
2022/03/16 07:32:50;;;;;;;23.27;16.73;;;;;;;6.36;100.00;102386.47;5074236;28;20254;-53
2022/03/16 07:35:17;;;;;;;23.23;15.73;;;;;;;6.29;100.00;102387.91;5066152;28;20304;-53
2022/03/16 07:37:44;;;;;;;23.03;14.87;;;;;;;6.37;100.00;102385.63;5066111;28;20250;-52
2022/03/16 07:40:11;;;;;;;20.00;15.17;;;;;;;6.44;100.00;102398.09;5062003;28;20243;-51
2022/03/16 07:42:38;;;;;;;25.40;17.27;;;;;;;6.56;100.00;102385.56;5073416;28;20223;-54
2022/03/16 07:45:05;;;;;;;22.57;16.17;;;;;;;6.38;100.00;102388.28;5065862;28;20255;-53
2022/03/16 07:47:31;;;;;;;20.53;14.50;;;;;;;6.31;100.00;102391.47;5067758;28;20255;-52
2022/03/16 07:49:59;;;;;;;21.83;15.90;;;;;;;6.41;100.00;102392.75;5067956;27;20649;-52
2022/03/16 07:52:25;;;;;;;22.50;15.70;;;;;;;6.43;100.00;102391.09;5058817;28;20261;-52
2022/03/16 07:54:52;;;;;;;19.90;14.63;;;;;;;6.58;100.00;102383.91;5063425;28;20239;-52
2022/03/16 07:57:18;;;;;;;19.53;15.53;;;;;;;6.59;100.00;102396.13;5060091;28;20240;-52
2022/03/16 07:59:45;;;;;;;24.50;15.30;;;;;;;6.73;100.00;102395.81;5065125;28;20784;-53
2022/03/16 08:02:15;;;;;;;22.70;15.43;;;;;;;6.92;100.00;102401.88;5059758;28;20227;-52
2022/03/16 08:04:41;;;;;;;26.87;18.63;;;;;;;6.99;100.00;102407.34;5064482;28;20259;-51
2022/03/16 08:07:10;;;;;;;23.57;17.27;;;;;;;7.17;100.00;102419.41;5060043;28;20243;-52
2022/03/16 08:09:37;;;;;;;26.27;17.40;;;;;;;7.29;99.16;102429.44;5065180;28;20243;-51
2022/03/16 08:12:03;;;;;;;26.93;15.90;;;;;;;7.26;99.12;102436.28;5065201;28;20231;-52
2022/03/16 08:14:30;;;;;;;27.30;17.97;;;;;;;7.23;98.90;102438.75;5066600;28;20593;-51
2022/03/16 08:16:56;;;;;;;22.90;15.33;;;;;;;7.49;98.29;102448.53;5064935;28;20281;-51
2022/03/16 08:19:22;;;;;;;20.80;14.43;;;;;;;7.56;96.70;102450.56;5064893;28;20288;-51
2022/03/16 08:21:49;;;;;;;20.40;14.63;;;;;;;7.47;95.25;102444.97;5066080;28;20312;-54
2022/03/16 08:24:17;;;;;;;21.77;14.43;;;;;;;7.28;95.94;102453.81;5066291;28;20259;-54
2022/03/16 08:26:44;;;;;;;20.17;17.93;;;;;;;7.05;98.38;102434.56;5066220;28;20311;-52
2022/03/16 08:29:10;;;;;;;22.93;15.13;;;;;;;7.02;98.81;102442.31;5062503;28;20231;-53
2022/03/16 08:31:37;;;;;;;21.97;17.60;;;;;;;6.89;98.89;102447.84;5070292;28;20226;-51
2022/03/16 08:34:03;;;;;;;22.67;14.37;;;;;;;6.87;99.36;102459.94;5065726;27;20248;-51
2022/03/16 08:36:30;;;;;;;23.80;14.57;;;;;;;6.92;98.88;102459.31;5064019;27;20254;-51
2022/03/16 08:38:56;;;;;;;22.90;16.23;;;;;;;6.43;99.67;102456.34;5063404;28;20242;-53
2022/03/16 08:41:25;;;;;;;19.73;14.47;;;;;;;6.56;100.00;102468.16;5064857;28;20266;-52
2022/03/16 08:43:51;;;;;;;23.77;17.50;;;;;;;6.72;98.94;102470.63;5064121;28;20273;-52
2022/03/16 08:46:18;;;;;;;20.90;13.97;;;;;;;6.87;99.07;102470.38;5061471;27;20266;-52
2022/03/16 08:48:44;;;;;;;19.97;14.43;;;;;;;6.82;99.91;102470.19;5061929;28;20308;-52
2022/03/16 08:51:10;;;;;;;20.93;14.93;;;;;;;6.84;98.50;102471.13;5063258;28;20337;-53
2022/03/16 08:53:37;;;;;;;25.57;16.47;;;;;;;6.88;98.07;102470.47;5065025;28;20251;-51
2022/03/16 08:56:04;;;;;;;19.00;14.30;;;;;;;7.13;99.21;102466.25;5063673;27;20714;-51
2022/03/16 08:58:32;;;;;;;24.57;16.93;;;;;;;7.20;99.29;102470.00;5064993;28;20262;-52
2022/03/16 09:00:58;;;;;;;23.37;14.90;;;;;;;7.32;97.59;102470.50;5066249;27;20231;-52
2022/03/16 09:03:25;;;;;;;21.37;15.07;;;;;;;7.33;96.68;102477.50;5062414;28;20270;-51
2022/03/16 09:05:52;;;;;;;19.80;15.57;;;;;;;7.39;95.48;102480.34;5070861;28;20245;-52
2022/03/16 09:08:19;;;;;;;22.83;15.70;;;;;;;7.45;97.09;102478.00;5065056;28;20306;-53
2022/03/16 09:10:45;;;;;;;21.27;15.07;;;;;;;7.39;96.28;102485.59;5064871;28;20727;-53
2022/03/16 09:13:11;;;;;;;21.07;14.93;;;;;;;7.39;95.87;102483.84;5065683;28;20293;-53
2022/03/16 09:15:39;;;;;;;17.60;14.13;;;;;;;7.20;97.08;102496.13;5065124;28;20273;-53
2022/03/16 09:18:09;;;;;;;21.67;16.07;;;;;;;7.49;95.99;102492.06;5064711;28;20238;-54
2022/03/16 09:20:35;;;;;;;52.77;41.23;;;;;;;7.29;96.61;102499.09;5065181;28;20308;-53
2022/03/16 09:23:01;;;;;;;32.37;23.13;;;;;;;7.37;97.69;102497.69;5066589;28;20658;-53
2022/03/16 09:25:28;;;;;;;24.60;17.03;;;;;;;7.37;97.95;102500.28;5062595;28;20708;-53
2022/03/16 09:27:55;;;;;;;23.20;18.03;;;;;;;7.43;95.54;102503.16;5061807;28;20262;-52
2022/03/16 09:30:23;;;;;;;19.37;14.50;;;;;;;7.49;96.15;102506.03;5060242;28;20258;-53
2022/03/16 09:32:54;;;;;;;20.13;14.33;;;;;;;7.61;96.71;102500.38;5061554;28;20227;-52
2022/03/16 09:35:21;;;;;;;48.80;40.20;;;;;;;7.34;97.45;102506.31;5062391;28;20235;-51
2022/03/16 09:37:47;;;;;;;30.77;22.07;;;;;;;7.54;97.80;102506.22;5060643;28;20284;-53
2022/03/16 09:40:13;;;;;;;25.67;20.60;;;;;;;7.46;99.27;102508.50;5062980;28;20285;-53
2022/03/16 09:42:40;;;;;;;28.17;20.57;;;;;;;7.64;96.82;102514.47;5064265;28;20304;-54
2022/03/16 09:45:11;;;;;;;22.97;18.43;;;;;;;7.74;97.01;102512.22;5066008;28;20263;-53
2022/03/16 09:47:37;;;;;;;24.87;18.67;;;;;;;7.78;97.27;102516.75;5069496;28;20249;-53
2022/03/16 09:50:06;;;;;;;29.17;23.40;;;;;;;7.92;95.33;102518.16;5062154;28;20957;-52
2022/03/16 09:52:32;;;;;;;38.37;31.37;;;;;;;7.67;94.99;102523.28;5073988;28;20258;-53
2022/03/16 09:54:59;;;;;;;29.07;21.77;;;;;;;7.84;96.65;102519.59;5066815;28;20312;-52
2022/03/16 09:57:25;;;;;;;24.50;18.33;;;;;;;7.77;95.76;102522.81;5072226;28;20699;-53
2022/03/16 09:59:52;;;;;;;22.73;16.40;;;;;;;7.87;96.41;102519.72;5063976;28;20269;-53
2022/03/16 10:02:21;;;;;;;31.83;23.73;;;;;;;7.72;97.49;102529.56;5062253;28;20238;-53
2022/03/16 10:04:48;;;;;;;23.00;17.40;;;;;;;7.89;96.29;102523.28;5063612;28;20314;-54
2022/03/16 10:07:15;;;;;;;20.67;16.50;;;;;;;7.99;94.63;102520.19;5060348;27;20231;-50
2022/03/16 10:15:12;;;;;;;21.30;16.93;;;;;;;7.34;98.43;102531.56;5066514;28;20236;-52
2022/03/16 10:17:45;;;;;;;17.40;14.50;;;;;;;7.44;99.17;102525.88;5073354;27;20250;-51
2022/03/16 10:20:22;;;;;;;16.90;14.60;;;;;;;7.48;98.34;102524.28;5069269;28;20273;-52
2022/03/16 10:23:01;;;;;;;24.80;17.53;;;;;;;7.54;100.00;102530.63;5065824;28;20678;-52
2022/03/16 10:25:29;;;;;;;21.87;17.93;;;;;;;7.86;98.28;102526.69;5067215;28;20237;-52
2022/03/16 10:28:10;;;;;;;14.90;11.70;;;;;;;7.82;97.30;102535.22;5074268;27;20234;-51
2022/03/16 10:30:36;;;;;;;15.33;11.87;;;;;;;7.85;98.44;102531.84;5058677;28;20233;-53
2022/03/16 10:33:03;;;;;;;19.87;12.87;;;;;;;7.91;97.32;102532.09;5077566;28;20234;-53
2022/03/16 10:35:29;;;;;;;17.83;12.67;;;;;;;8.02;96.42;102532.50;5064240;28;20258;-53
2022/03/16 10:38:07;;;;;;;19.27;13.93;;;;;;;8.06;96.94;102527.44;5065364;28;20285;-52
2022/03/16 10:40:34;;;;;;;15.50;11.27;;;;;;;8.22;95.46;102530.66;5065761;28;20653;-53
2022/03/16 10:48:57;;;;;;;23.83;15.17;;;;;;;7.94;97.28;102541.78;5069795;28;20263;-52
2022/03/16 10:51:23;;;;;;;18.83;13.50;;;;;;;8.10;97.58;102546.75;5066043;27;20246;-52
2022/03/16 10:53:52;;;;;;;14.87;12.20;;;;;;;8.33;96.66;102540.66;5067304;28;20223;-50
2022/03/16 10:56:19;;;;;;;15.53;12.83;;;;;;;8.63;94.53;102541.75;5071116;27;20249;-50
2022/03/16 10:58:46;;;;;;;17.47;13.43;;;;;;;9.03;91.73;102539.72;5058699;28;20270;-52
2022/03/16 11:01:13;;;;;;;28.50;17.73;;;;;;;9.20;91.15;102547.28;5064767;28;20296;-51
2022/03/16 11:03:40;;;;;;;26.20;18.60;;;;;;;9.38;90.20;102547.00;5068980;28;20269;-51
2022/03/16 11:06:08;;;;;;;23.63;17.83;;;;;;;9.53;90.50;102539.63;5070627;27;20328;-52
2022/03/16 11:08:36;;;;;;;20.77;17.87;;;;;;;9.46;88.72;102533.28;5067325;28;20238;-52
2022/03/16 11:13:27;;;;;;;16.17;13.70;;;;;;;9.15;89.34;102535.72;5069810;28;20239;-53
2022/03/16 11:13:50;;;;;;;17.63;12.90;;;;;;;9.41;89.74;102536.59;5062644;28;20246;-53
2022/03/16 11:16:19;;;;;;;14.30;11.70;;;;;;;9.02;90.29;102542.25;5066146;28;20324;-53
2022/03/16 11:18:46;;;;;;;14.10;10.80;;;;;;;9.47;87.85;102532.44;5065935;28;20300;-53
2022/03/16 11:21:14;;;;;;;14.47;11.93;;;;;;;9.15;88.39;102534.00;5068271;28;20291;-51
2022/03/16 11:26:38;;;;;;;14.67;11.37;;;;;;;9.67;87.96;102535.69;5066438;28;20269;-53